Time;durP1;ratioP1;P1;durP2;ratioP2;P2;SDS_P1;SDS_P2;PMS_P1;PMS_P2;Temp;Humidity;BMP_temperature;BMP_pressure;BME280_temperature;BME280_humidity;BME280_pressure;Samples;Min_cycle;Max_cycle;Signal;HPM_P1;HPM_P2
2023/07/29 00:02:33;;;;;;;0.43;0.38;;;;;;;24.94;100.00;100699.91;10502190;28;20052;-79
2023/07/29 00:07:35;;;;;;;1.27;0.32;;;;;;;25.61;100.00;100680.63;10518995;28;20142;-79
2023/07/29 00:12:36;;;;;;;0.10;0.05;;;;;;;25.46;100.00;100682.13;10515524;28;20487;-80
2023/07/29 00:17:38;;;;;;;0.00;0.00;;;;;;;25.18;100.00;100688.41;10501344;28;20044;-79
2023/07/29 00:22:39;;;;;;;0.80;0.40;;;;;;;24.01;100.00;100693.50;10517106;28;20436;-79
2023/07/29 00:27:42;;;;;;;0.30;0.10;;;;;;;25.34;100.00;100693.97;10517419;28;20046;-79
2023/07/29 00:32:43;;;;;;;0.00;0.00;;;;;;;25.72;100.00;100687.25;10501503;28;20052;-79
2023/07/29 00:37:46;;;;;;;0.57;0.35;;;;;;;25.28;100.00;100688.06;10516847;28;20149;-79
2023/07/29 00:42:50;;;;;;;0.20;0.13;;;;;;;25.35;100.00;100685.13;10517192;28;20410;-79
2023/07/29 00:47:51;;;;;;;0.00;0.00;;;;;;;25.38;100.00;100683.28;10516451;28;20141;-79
2023/07/29 00:52:54;;;;;;;0.35;0.22;;;;;;;25.30;100.00;100681.81;10510567;28;20093;-79
2023/07/29 00:57:57;;;;;;;0.25;0.20;;;;;;;25.20;100.00;100685.75;10516226;28;20156;-79
2023/07/29 01:03:00;;;;;;;0.38;0.38;;;;;;;25.03;100.00;100679.34;10499961;28;20097;-79
2023/07/29 01:08:31;;;;;;;0.20;0.00;;;;;;;24.54;100.00;100670.56;10512371;28;20067;-79
2023/07/29 01:13:42;;;;;;;0.10;0.10;;;;;;;25.23;100.00;100682.13;10508356;28;20047;-79
2023/07/29 01:18:47;;;;;;;0.00;0.00;;;;;;;24.80;100.00;100666.16;10500399;28;20058;-79
2023/07/29 01:23:53;;;;;;;0.10;0.10;;;;;;;24.78;100.00;100671.50;10514894;28;20044;-79
2023/07/29 01:28:56;;;;;;;0.08;0.03;;;;;;;24.47;100.00;100674.34;10514676;28;20462;-79
2023/07/29 01:34:06;;;;;;;0.00;0.00;;;;;;;25.23;100.00;100676.84;10507296;28;20036;-79
2023/07/29 01:39:11;;;;;;;;;;;;;;;25.14;100.00;100670.13;10498315;28;20071;-79
2023/07/29 01:44:14;;;;;;;0.00;0.00;;;;;;;25.27;100.00;100666.13;10514575;28;19924;-79
2023/07/29 01:49:16;;;;;;;0.00;0.00;;;;;;;25.32;100.00;100650.97;10514692;28;20129;-79
2023/07/29 01:54:17;;;;;;;0.13;0.10;;;;;;;24.79;100.00;100652.16;10513977;28;20414;-79
2023/07/29 01:59:19;;;;;;;0.00;0.00;;;;;;;25.13;100.00;100658.75;10500512;28;20066;-79
2023/07/29 02:04:22;;;;;;;0.00;0.00;;;;;;;24.65;100.00;100650.00;10513206;28;20062;-79
2023/07/29 02:09:25;;;;;;;0.00;0.00;;;;;;;24.89;100.00;100652.66;10509742;28;20491;-79
2023/07/29 02:14:27;;;;;;;0.03;0.03;;;;;;;24.44;100.00;100653.41;10496457;28;20055;-79
2023/07/29 02:19:29;;;;;;;0.10;0.10;;;;;;;24.18;100.00;100658.69;10496814;28;20463;-79
2023/07/29 02:24:30;;;;;;;0.32;0.30;;;;;;;24.67;100.00;100650.84;10496410;28;20663;-79
2023/07/29 02:29:32;;;;;;;0.55;0.30;;;;;;;25.53;100.00;100635.22;10512157;28;20043;-79
2023/07/29 02:34:34;;;;;;;0.00;0.00;;;;;;;25.61;100.00;100625.22;10512601;28;20131;-79
2023/07/29 02:39:36;;;;;;;0.10;0.10;;;;;;;25.79;100.00;100634.16;10496065;28;20509;-79
2023/07/29 02:44:40;;;;;;;0.17;0.03;;;;;;;25.02;100.00;100635.44;10511813;28;20043;-79
2023/07/29 02:49:41;;;;;;;0.52;0.20;;;;;;;25.31;100.00;100638.72;10496268;28;20130;-79
2023/07/29 02:54:43;;;;;;;0.00;0.00;;;;;;;24.86;100.00;100639.59;10511903;28;20048;-78
2023/07/29 02:59:45;;;;;;;0.00;0.00;;;;;;;25.26;100.00;100643.31;10511365;28;20137;-79
2023/07/29 03:04:48;;;;;;;0.08;0.08;;;;;;;25.78;100.00;100645.63;10511466;28;20039;-79
2023/07/29 03:09:49;;;;;;;0.00;0.00;;;;;;;25.61;100.00;100643.69;10511491;28;20042;-79
2023/07/29 03:14:51;;;;;;;0.00;0.00;;;;;;;25.48;100.00;100634.56;10494595;28;20082;-79
2023/07/29 03:19:53;;;;;;;0.00;0.00;;;;;;;25.13;100.00;100623.63;10490292;28;20353;-79
2023/07/29 03:24:54;;;;;;;0.22;0.17;;;;;;;25.16;100.00;100627.00;10497478;28;20493;-79
2023/07/29 03:29:56;;;;;;;0.00;0.00;;;;;;;24.23;100.00;100637.47;10494688;28;20070;-79
2023/07/29 03:34:58;;;;;;;0.15;0.15;;;;;;;24.06;100.00;100640.69;10494844;28;20221;-79
2023/07/29 03:40:00;;;;;;;0.52;0.30;;;;;;;24.18;100.00;100648.16;10502630;28;20055;-79
2023/07/29 03:45:06;;;;;;;5.07;0.80;;;;;;;24.30;100.00;100646.88;10518647;28;20430;-79
2023/07/29 03:50:08;;;;;;;0.17;0.17;;;;;;;24.31;100.00;100645.09;10518450;28;20130;-79
2023/07/29 03:55:10;;;;;;;0.10;0.10;;;;;;;24.46;100.00;100634.00;10515841;28;20051;-79
2023/07/29 04:00:13;;;;;;;0.20;0.20;;;;;;;24.47;100.00;100632.22;10512475;28;20041;-79
2023/07/29 04:05:20;;;;;;;0.40;0.35;;;;;;;24.52;100.00;100622.41;10518746;28;20048;-79
2023/07/29 04:10:22;;;;;;;0.30;0.30;;;;;;;24.21;100.00;100620.88;10497289;28;20460;-79
2023/07/29 04:15:24;;;;;;;0.65;0.40;;;;;;;24.61;100.00;100614.13;10500105;28;20522;-79
2023/07/29 04:20:25;;;;;;;0.85;0.55;;;;;;;25.41;100.00;100614.66;10514929;28;20052;-79
2023/07/29 04:25:28;;;;;;;0.57;0.30;;;;;;;24.69;100.00;100621.78;10515724;28;20127;-79
2023/07/29 04:30:29;;;;;;;1.10;0.63;;;;;;;25.15;100.00;100616.50;10524803;28;20089;-80
2023/07/29 04:35:31;;;;;;;0.30;0.13;;;;;;;25.11;100.00;100628.09;10512175;28;20056;-79
2023/07/29 04:40:33;;;;;;;0.00;0.00;;;;;;;25.51;100.00;100634.44;10514608;28;20044;-79
2023/07/29 04:45:35;;;;;;;0.25;0.22;;;;;;;24.82;100.00;100633.56;10513323;28;20486;-79
2023/07/29 04:50:37;;;;;;;1.05;0.50;;;;;;;24.60;100.00;100627.38;10497596;28;20044;-79
2023/07/29 04:55:40;;;;;;;0.90;0.30;;;;;;;24.63;100.00;100606.19;10498422;28;20048;-79
2023/07/29 05:00:42;;;;;;;0.22;0.13;;;;;;;24.29;100.00;100603.03;10496695;28;20075;-79
2023/07/29 05:05:43;;;;;;;0.28;0.28;;;;;;;24.31;100.00;100606.44;10493072;28;20050;-79
2023/07/29 05:10:48;;;;;;;1.08;0.63;;;;;;;24.44;100.00;100611.28;10498156;28;20052;-79
2023/07/29 05:15:50;;;;;;;0.30;0.30;;;;;;;24.47;100.00;100626.94;10513510;28;20067;-79
2023/07/29 05:20:53;;;;;;;0.25;0.20;;;;;;;23.97;100.00;100636.59;10496475;28;20055;-79
2023/07/29 05:25:55;;;;;;;0.30;0.30;;;;;;;24.31;100.00;100651.19;10513505;28;20040;-78
2023/07/29 05:31:00;;;;;;;0.38;0.30;;;;;;;24.44;100.00;100661.31;10470680;28;1051934;-79
2023/07/29 05:36:02;;;;;;;1.77;0.50;;;;;;;24.21;100.00;100662.97;10497031;28;20131;-79
2023/07/29 05:41:04;;;;;;;0.35;0.32;;;;;;;24.19;100.00;100656.91;10497842;28;20075;-79
2023/07/29 05:46:05;;;;;;;0.47;0.47;;;;;;;24.34;100.00;100659.00;10514849;28;20127;-79
2023/07/29 05:51:07;;;;;;;0.10;0.10;;;;;;;25.00;100.00;100658.34;10514047;28;20050;-79
2023/07/29 05:56:10;;;;;;;0.28;0.10;;;;;;;24.14;100.00;100661.47;10531046;28;20048;-78
2023/07/29 06:01:12;;;;;;;0.03;0.03;;;;;;;24.31;100.00;100667.00;10512700;28;20048;-79
2023/07/29 06:06:13;;;;;;;0.10;0.10;;;;;;;24.28;100.00;100669.75;10514336;28;20036;-79
2023/07/29 06:11:15;;;;;;;0.17;0.17;;;;;;;23.84;100.00;100701.03;10493932;28;20482;-79
2023/07/29 06:16:17;;;;;;;0.55;0.20;;;;;;;24.06;100.00;100704.72;10509144;28;20039;-79
2023/07/29 06:21:20;;;;;;;0.32;0.32;;;;;;;24.06;100.00;100696.81;10499247;28;20044;-78
2023/07/29 06:26:21;;;;;;;0.10;0.10;;;;;;;24.45;100.00;100697.25;10513265;28;20054;-79
2023/07/29 06:31:23;;;;;;;1.33;0.40;;;;;;;24.29;100.00;100705.69;10529509;28;20043;-79
2023/07/29 06:36:25;;;;;;;0.00;0.00;;;;;;;23.72;100.00;100703.13;10513036;28;20426;-79
2023/07/29 06:41:27;;;;;;;0.35;0.20;;;;;;;24.29;100.00;100689.03;10511407;28;20499;-79
2023/07/29 06:46:28;;;;;;;0.20;0.20;;;;;;;24.84;100.00;100689.72;10529337;28;20040;-79
2023/07/29 06:51:32;;;;;;;0.82;0.55;;;;;;;24.66;100.00;100691.25;10510897;28;20396;-79
2023/07/29 06:56:34;;;;;;;0.30;0.28;;;;;;;24.76;100.00;100683.03;10495414;28;20046;-79
2023/07/29 07:01:36;;;;;;;0.50;0.40;;;;;;;25.08;100.00;100687.06;10497594;28;20155;-79
2023/07/29 07:06:38;;;;;;;0.15;0.15;;;;;;;25.29;100.00;100693.28;10513675;28;20544;-79
2023/07/29 07:11:39;;;;;;;0.43;0.17;;;;;;;25.28;100.00;100683.63;10500695;28;20417;-80
2023/07/29 07:16:41;;;;;;;0.60;0.20;;;;;;;24.83;100.00;100685.34;10506190;28;20051;-79
2023/07/29 07:21:43;;;;;;;0.65;0.60;;;;;;;25.12;100.00;100696.56;10530512;28;20093;-79
2023/07/29 07:26:45;;;;;;;0.40;0.30;;;;;;;25.41;100.00;100691.13;10509635;28;20411;-79
2023/07/29 07:31:52;;;;;;;0.75;0.43;;;;;;;24.52;100.00;100701.41;10503186;28;20203;-79
2023/07/29 07:36:54;;;;;;;0.30;0.30;;;;;;;26.56;100.00;100706.56;10521795;28;20043;-79
2023/07/29 07:41:55;;;;;;;0.10;0.10;;;;;;;27.17;100.00;100707.38;10509898;28;20036;-79
2023/07/29 07:46:57;;;;;;;0.80;0.40;;;;;;;27.30;100.00;100706.78;10512730;28;20525;-80
2023/07/29 07:51:59;;;;;;;0.13;0.13;;;;;;;26.30;100.00;100715.63;10512063;28;20047;-79
2023/07/29 07:57:00;;;;;;;0.00;0.00;;;;;;;27.10;100.00;100711.22;10508860;28;20036;-79
2023/07/29 08:02:02;;;;;;;0.10;0.10;;;;;;;27.35;100.00;100704.78;10492048;28;20057;-78
2023/07/29 08:07:04;;;;;;;0.73;0.45;;;;;;;28.84;100.00;100707.97;10511845;28;20072;-79
2023/07/29 08:12:06;;;;;;;0.25;0.22;;;;;;;28.31;100.00;100700.97;10493318;28;20384;-79
2023/07/29 08:17:07;;;;;;;0.20;0.20;;;;;;;28.58;100.00;100702.22;10498369;28;20075;-79
2023/07/29 08:22:09;;;;;;;0.17;0.17;;;;;;;27.84;100.00;100706.88;10515528;28;20044;-79
2023/07/29 08:27:11;;;;;;;0.28;0.10;;;;;;;28.03;100.00;100701.50;10503467;28;20478;-79
2023/07/29 08:32:12;;;;;;;0.20;0.20;;;;;;;28.22;100.00;100692.63;10533247;28;20043;-77
2023/07/29 08:37:14;;;;;;;0.22;0.20;;;;;;;27.15;100.00;100703.94;10515963;28;20399;-79
2023/07/29 08:42:19;;;;;;;0.00;0.00;;;;;;;27.98;100.00;100709.69;10508778;28;20036;-79
2023/07/29 08:47:20;;;;;;;0.55;0.17;;;;;;;27.37;100.00;100713.50;10513600;28;20040;-79
2023/07/29 08:52:23;;;;;;;0.40;0.30;;;;;;;26.81;100.00;100718.72;10506977;28;20054;-79
2023/07/29 08:57:26;;;;;;;0.30;0.20;;;;;;;27.51;100.00;100721.69;10518321;28;20097;-79
2023/07/29 09:02:27;;;;;;;0.03;0.03;;;;;;;26.83;100.00;100735.38;10518522;28;20051;-80
2023/07/29 09:07:30;;;;;;;1.65;0.50;;;;;;;27.53;100.00;100730.38;10516973;28;20050;-78
2023/07/29 09:12:31;;;;;;;0.00;0.00;;;;;;;27.01;100.00;100743.38;10537102;28;20047;-78
2023/07/29 09:17:33;;;;;;;1.75;0.50;;;;;;;26.46;100.00;100742.25;10536900;28;20379;-79
2023/07/29 09:22:35;;;;;;;0.15;0.10;;;;;;;27.28;100.00;100730.66;10507647;28;20044;-79
2023/07/29 09:27:39;;;;;;;0.98;0.40;;;;;;;26.89;100.00;100740.38;10511314;28;20109;-80
2023/07/29 09:32:41;;;;;;;0.10;0.10;;;;;;;26.50;100.00;100741.19;10499207;28;20044;-79
2023/07/29 09:37:43;;;;;;;0.20;0.20;;;;;;;27.12;100.00;100730.53;10530069;28;20078;-79
2023/07/29 09:42:52;;;;;;;0.85;0.28;;;;;;;26.38;100.00;100728.50;10531673;28;20044;-79
2023/07/29 09:47:54;;;;;;;3.25;0.75;;;;;;;26.77;100.00;100725.03;10525731;28;20039;-80
2023/07/29 09:53:00;;;;;;;0.20;0.20;;;;;;;26.62;100.00;100729.22;10522400;28;20115;-79
2023/07/29 09:58:03;;;;;;;0.35;0.28;;;;;;;28.27;100.00;100714.44;10520377;28;20040;-79
2023/07/29 10:03:06;;;;;;;0.73;0.25;;;;;;;28.49;100.00;100715.03;10519103;28;20410;-78
2023/07/29 10:08:10;;;;;;;0.10;0.10;;;;;;;28.06;100.00;100706.66;10513570;28;20044;-79
2023/07/29 10:13:12;;;;;;;0.10;0.10;;;;;;;28.23;100.00;100713.72;10519295;28;20051;-79
2023/07/29 10:18:15;;;;;;;0.93;0.35;;;;;;;27.19;100.00;100726.66;10496208;28;20036;-79
2023/07/29 10:23:22;;;;;;;0.25;0.10;;;;;;;27.42;100.00;100722.13;10497055;28;20139;-79
2023/07/29 10:28:25;;;;;;;0.73;0.43;;;;;;;27.04;100.00;100722.94;10515123;28;20067;-78
2023/07/29 10:33:27;;;;;;;0.20;0.20;;;;;;;27.18;100.00;100724.97;10518943;28;20040;-79
2023/07/29 10:38:30;;;;;;;0.00;0.00;;;;;;;28.13;100.00;100716.00;10495163;28;20044;-78
2023/07/29 10:43:33;;;;;;;0.45;0.17;;;;;;;28.03;100.00;100712.09;10502918;28;20058;-78
2023/07/29 10:48:35;;;;;;;0.52;0.30;;;;;;;28.02;100.00;100715.69;10495661;28;20140;-79
2023/07/29 10:53:37;;;;;;;0.10;0.10;;;;;;;29.32;100.00;100708.03;10516030;28;20419;-79
2023/07/29 10:58:42;;;;;;;0.10;0.10;;;;;;;28.90;100.00;100712.94;10495780;28;20627;-78
2023/07/29 11:04:01;;;;;;;0.45;0.15;;;;;;;28.36;100.00;100713.13;10533320;28;20035;-79
2023/07/29 11:09:39;;;;;;;0.00;0.00;;;;;;;29.04;100.00;100710.41;10515332;28;20632;-79
2023/07/29 11:14:40;;;;;;;0.40;0.40;;;;;;;28.68;100.00;100716.72;10493788;28;20402;-78
2023/07/29 11:19:43;;;;;;;0.03;0.03;;;;;;;28.62;100.00;100709.09;10499330;28;20040;-78
2023/07/29 11:24:44;;;;;;;0.32;0.32;;;;;;;28.29;100.00;100708.16;10516491;28;20063;-79
2023/07/29 11:29:47;;;;;;;0.30;0.20;;;;;;;28.99;100.00;100704.50;10489133;28;20051;-79
2023/07/29 11:34:48;;;;;;;0.10;0.05;;;;;;;28.94;100.00;100703.88;10512825;28;20479;-79
2023/07/29 11:39:51;;;;;;;0.40;0.20;;;;;;;29.13;100.00;100699.28;10499969;28;20134;-78
2023/07/29 11:44:52;;;;;;;1.25;0.38;;;;;;;29.06;100.00;100699.69;10500691;28;20052;-79
2023/07/29 11:49:57;;;;;;;0.38;0.22;;;;;;;29.78;100.00;100693.91;10534834;28;20051;-79
2023/07/29 11:55:02;;;;;;;0.10;0.10;;;;;;;29.88;100.00;100695.09;10515182;28;20044;-78
2023/07/29 12:00:09;;;;;;;0.10;0.10;;;;;;;29.43;100.00;100695.88;10523752;28;20118;-79
2023/07/29 12:05:13;;;;;;;0.10;0.10;;;;;;;29.15;100.00;100690.38;10524540;28;20048;-78
2023/07/29 12:10:15;;;;;;;0.20;0.15;;;;;;;29.09;100.00;100689.78;10499838;28;20052;-78
2023/07/29 12:15:28;;;;;;;0.28;0.10;;;;;;;29.03;100.00;100691.91;10532452;28;20048;-79
2023/07/29 12:20:30;;;;;;;0.00;0.00;;;;;;;29.52;100.00;100683.03;10505801;28;20046;-79
2023/07/29 12:25:32;;;;;;;0.77;0.63;;;;;;;27.98;100.00;100693.78;10515650;28;20043;-77
2023/07/29 12:30:34;;;;;;;0.20;0.00;;;;;;;28.32;100.00;100696.53;10525258;28;20042;-78
2023/07/29 12:35:37;;;;;;;0.20;0.10;;;;;;;27.94;100.00;100701.97;10509190;28;20047;-78
2023/07/29 12:40:40;;;;;;;0.10;0.10;;;;;;;27.75;100.00;100708.16;10511050;28;20376;-78
2023/07/29 12:45:42;;;;;;;0.00;0.00;;;;;;;26.73;100.00;100724.28;10502173;28;20051;-77
2023/07/29 12:50:43;;;;;;;0.30;0.22;;;;;;;26.64;100.00;100748.50;10500593;28;20498;-77
2023/07/29 12:55:45;;;;;;;0.10;0.10;;;;;;;25.91;100.00;100755.97;10516440;28;20052;-77
2023/07/29 13:00:50;;;;;;;0.15;0.05;;;;;;;25.48;100.00;100779.63;10519132;28;20044;-77
2023/07/29 13:05:51;;;;;;;0.20;0.20;;;;;;;25.72;100.00;100771.69;10517924;28;20040;-77
2023/07/29 13:10:54;;;;;;;0.63;0.47;;;;;;;26.00;100.00;100776.69;10499865;28;20501;-77
2023/07/29 13:15:57;;;;;;;0.10;0.10;;;;;;;26.34;100.00;100777.09;10499061;28;20052;-77
2023/07/29 13:21:02;;;;;;;0.80;0.52;;;;;;;26.66;100.00;100769.56;10514787;28;20133;-77
2023/07/29 13:26:04;;;;;;;0.00;0.00;;;;;;;26.98;100.00;100748.81;10515345;28;20052;-78
2023/07/29 13:31:06;;;;;;;0.25;0.10;;;;;;;27.20;100.00;100733.69;10501261;28;20050;-77
2023/07/29 13:36:08;;;;;;;0.65;0.10;;;;;;;27.17;100.00;100744.38;10518940;28;20090;-77
2023/07/29 13:41:10;;;;;;;0.00;0.00;;;;;;;26.89;100.00;100745.66;10519401;28;20036;-77
2023/07/29 13:46:11;;;;;;;0.57;0.40;;;;;;;28.17;100.00;100736.13;10538197;28;20513;-78
2023/07/29 13:51:13;;;;;;;0.17;0.17;;;;;;;27.32;100.00;100750.75;10532364;28;20041;-79
2023/07/29 13:56:15;;;;;;;0.00;0.00;;;;;;;27.36;100.00;100756.78;10515880;28;20071;-78
2023/07/29 14:01:16;;;;;;;0.20;0.13;;;;;;;26.60;100.00;100779.50;10510274;28;20253;-79
2023/07/29 14:06:18;;;;;;;0.20;0.20;;;;;;;26.13;100.00;100771.78;10528362;28;20124;-79
2023/07/29 14:11:26;;;;;;;0.00;0.00;;;;;;;27.46;100.00;100771.28;10496687;28;20051;-79
2023/07/29 14:16:27;;;;;;;0.00;0.00;;;;;;;26.86;100.00;100777.50;10517011;28;20506;-78
2023/07/29 14:21:29;;;;;;;0.00;0.00;;;;;;;27.60;100.00;100772.41;10499197;28;20403;-79
2023/07/29 14:26:31;;;;;;;0.08;0.08;;;;;;;27.62;100.00;100782.03;10527751;28;20513;-78
2023/07/29 14:31:32;;;;;;;0.10;0.00;;;;;;;28.29;100.00;100781.44;10515367;28;20388;-79
2023/07/29 14:36:34;;;;;;;0.10;0.10;;;;;;;27.00;100.00;100781.31;10505152;28;20102;-78
2023/07/29 14:41:36;;;;;;;0.28;0.10;;;;;;;27.95;100.00;100767.22;10510389;28;20044;-78
2023/07/29 14:46:38;;;;;;;0.88;0.30;;;;;;;27.01;100.00;100767.16;10535915;28;20094;-79
2023/07/29 14:51:40;;;;;;;0.30;0.15;;;;;;;27.70;100.00;100752.53;10516550;28;20692;-77
2023/07/29 14:56:42;;;;;;;0.00;0.00;;;;;;;27.78;100.00;100747.72;10489076;28;20063;-79
2023/07/29 15:01:43;;;;;;;0.22;0.00;;;;;;;26.99;100.00;100756.66;10518842;28;20565;-78
2023/07/29 15:06:45;;;;;;;0.00;0.00;;;;;;;28.07;100.00;100749.91;10517307;28;20059;-79
2023/07/29 15:11:47;;;;;;;0.20;0.10;;;;;;;26.75;100.00;100754.19;10510890;28;20044;-78
2023/07/29 15:16:48;;;;;;;0.00;0.00;;;;;;;28.09;100.00;100748.88;10496896;28;20044;-79
2023/07/29 15:21:50;;;;;;;0.00;0.00;;;;;;;28.48;100.00;100745.09;10500787;28;20040;-79
2023/07/29 15:26:52;;;;;;;0.00;0.00;;;;;;;27.12;100.00;100741.09;10516175;28;20059;-78
2023/07/29 15:31:53;;;;;;;0.00;0.00;;;;;;;27.15;100.00;100740.94;10504535;28;20048;-79
2023/07/29 15:36:55;;;;;;;0.15;0.15;;;;;;;27.15;100.00;100740.09;10515128;28;20048;-79
2023/07/29 15:41:56;;;;;;;0.10;0.10;;;;;;;28.02;100.00;100743.00;10544299;28;20036;-79
2023/07/29 15:46:58;;;;;;;0.55;0.30;;;;;;;27.90;100.00;100737.44;10524693;28;20059;-78
2023/07/29 15:52:00;;;;;;;0.10;0.10;;;;;;;28.28;100.00;100722.31;10527599;28;20048;-79
2023/07/29 15:57:02;;;;;;;1.23;0.20;;;;;;;27.68;100.00;100717.34;10503409;28;20052;-78
2023/07/29 16:02:04;;;;;;;0.10;0.10;;;;;;;27.69;100.00;100716.41;10516033;28;20139;-79
2023/07/29 16:07:05;;;;;;;0.00;0.00;;;;;;;28.28;100.00;100711.72;10506409;28;20429;-79
2023/07/29 16:12:07;;;;;;;0.65;0.20;;;;;;;27.29;100.00;100716.50;10523894;28;20486;-79
2023/07/29 16:17:09;;;;;;;0.00;0.00;;;;;;;28.21;100.00;100704.16;10523520;28;20048;-79
2023/07/29 16:22:10;;;;;;;0.00;0.00;;;;;;;28.60;100.00;100705.66;10503762;28;20052;-79
2023/07/29 16:27:12;;;;;;;0.08;0.08;;;;;;;28.84;100.00;100707.97;10522599;28;20044;-79
2023/07/29 16:32:16;;;;;;;6.00;3.08;;;;;;;27.93;100.00;100705.53;10521928;28;20044;-79
2023/07/29 16:37:17;;;;;;;4.15;1.67;;;;;;;28.22;100.00;100708.53;10500741;28;20040;-79
2023/07/29 16:42:19;;;;;;;4.00;1.08;;;;;;;27.93;100.00;100702.91;10516004;28;20040;-78
2023/07/29 16:47:21;;;;;;;1.42;0.95;;;;;;;27.45;100.00;100694.66;10538330;28;20048;-79
2023/07/29 16:52:23;;;;;;;2.13;1.20;;;;;;;28.16;100.00;100699.97;10506876;28;20506;-79
2023/07/29 16:57:25;;;;;;;0.80;0.73;;;;;;;27.80;100.00;100689.41;10497848;28;20043;-79
2023/07/29 17:02:27;;;;;;;0.68;0.65;;;;;;;27.80;100.00;100700.88;10514837;28;20134;-79
2023/07/29 17:07:28;;;;;;;2.15;1.75;;;;;;;28.57;100.00;100713.78;10523876;28;20036;-79
2023/07/29 17:12:30;;;;;;;1.13;0.63;;;;;;;28.03;100.00;100717.38;10500407;28;20047;-78
2023/07/29 17:17:32;;;;;;;0.22;0.22;;;;;;;28.07;100.00;100729.56;10530923;28;20044;-79
2023/07/29 17:22:35;;;;;;;0.47;0.30;;;;;;;28.12;100.00;100716.94;10524011;28;20055;-79
2023/07/29 17:27:36;;;;;;;0.25;0.25;;;;;;;27.92;100.00;100714.41;10520197;28;20044;-78
2023/07/29 17:32:38;;;;;;;0.30;0.30;;;;;;;27.54;100.00;100725.97;10521634;28;20040;-79
2023/07/29 17:37:40;;;;;;;0.60;0.60;;;;;;;27.27;100.00;100718.38;10521021;28;20571;-78
2023/07/29 17:42:41;;;;;;;0.40;0.30;;;;;;;27.32;100.00;100705.81;10508351;28;20688;-79
2023/07/29 17:47:43;;;;;;;2.50;1.38;;;;;;;27.56;100.00;100708.19;10520370;28;20059;-78
2023/07/29 17:52:45;;;;;;;0.98;0.68;;;;;;;27.61;100.00;100700.03;10502619;28;20414;-78
2023/07/29 17:57:47;;;;;;;1.05;0.73;;;;;;;28.14;100.00;100693.88;10491641;28;20501;-79
2023/07/29 18:02:49;;;;;;;0.73;0.50;;;;;;;27.83;100.00;100708.63;10505927;28;20111;-78
2023/07/29 18:07:50;;;;;;;0.55;0.55;;;;;;;27.27;100.00;100717.53;10513390;28;20536;-80
2023/07/29 18:12:52;;;;;;;3.25;0.60;;;;;;;27.51;100.00;100726.97;10520483;28;20573;-78
2023/07/29 18:17:54;;;;;;;0.70;0.63;;;;;;;27.22;100.00;100734.44;10495483;28;20062;-79
2023/07/29 18:23:00;;;;;;;4.68;1.35;;;;;;;27.43;100.00;100734.41;10508391;28;20047;-79
2023/07/29 18:28:02;;;;;;;0.57;0.47;;;;;;;27.32;100.00;100737.53;10518248;28;20131;-79
2023/07/29 18:33:04;;;;;;;0.80;0.50;;;;;;;27.32;100.00;100734.91;10507995;28;20058;-79
2023/07/29 18:38:06;;;;;;;0.60;0.50;;;;;;;27.43;100.00;100742.34;10509059;28;20501;-79
2023/07/29 18:43:11;;;;;;;0.40;0.40;;;;;;;27.64;100.00;100745.75;10528082;28;20064;-78
2023/07/29 18:48:12;;;;;;;0.25;0.20;;;;;;;26.97;100.00;100747.09;10515154;28;20035;-78
2023/07/29 18:53:14;;;;;;;1.42;0.28;;;;;;;26.83;100.00;100745.94;10510047;28;20129;-79
2023/07/29 18:58:16;;;;;;;0.40;0.40;;;;;;;26.85;100.00;100749.34;10535969;28;20475;-79
2023/07/29 19:03:19;;;;;;;0.52;0.38;;;;;;;26.36;100.00;100751.47;10518447;28;20036;-78
2023/07/29 19:08:20;;;;;;;1.02;0.65;;;;;;;27.01;100.00;100753.94;10500628;28;20063;-78
2023/07/29 19:13:22;;;;;;;0.73;0.20;;;;;;;26.20;100.00;100756.56;10503001;28;20044;-79
2023/07/29 19:18:24;;;;;;;0.30;0.20;;;;;;;26.25;100.00;100755.44;10494243;28;20067;-78
2023/07/29 19:23:26;;;;;;;0.13;0.10;;;;;;;26.28;100.00;100765.88;10501816;28;20143;-78
2023/07/29 19:28:27;;;;;;;0.08;0.08;;;;;;;26.36;100.00;100764.69;10517151;28;20043;-78
2023/07/29 19:33:29;;;;;;;0.10;0.10;;;;;;;26.09;100.00;100757.84;10521921;28;20036;-78
2023/07/29 19:38:30;;;;;;;0.08;0.08;;;;;;;26.33;100.00;100757.75;10512799;28;20407;-79
2023/07/29 19:43:32;;;;;;;0.17;0.15;;;;;;;26.44;100.00;100765.22;10497460;28;20048;-79
2023/07/29 19:48:34;;;;;;;0.22;0.10;;;;;;;25.70;100.00;100781.41;10503640;28;20051;-79
2023/07/29 19:53:36;;;;;;;1.60;0.98;;;;;;;26.48;100.00;100782.63;10504753;28;20440;-78
2023/07/29 19:58:37;;;;;;;3.95;0.50;;;;;;;26.05;100.00;100797.63;10515968;28;20048;-78
2023/07/29 20:03:39;;;;;;;0.20;0.20;;;;;;;25.49;100.00;100791.91;10509652;28;20048;-78
2023/07/29 20:08:42;;;;;;;0.20;0.20;;;;;;;23.32;100.00;100814.81;10516107;28;20029;-78
2023/07/29 20:13:44;;;;;;;0.43;0.35;;;;;;;24.60;100.00;100790.66;10502927;28;20048;-79
2023/07/29 20:18:45;;;;;;;0.10;0.10;;;;;;;25.02;100.00;100797.97;10502414;28;20041;-78
2023/07/29 20:23:48;;;;;;;0.30;0.20;;;;;;;25.02;100.00;100798.84;10502870;28;20055;-79
2023/07/29 20:28:50;;;;;;;0.10;0.10;;;;;;;25.44;100.00;100799.97;10493242;28;20036;-78
2023/07/29 20:33:51;;;;;;;0.15;0.08;;;;;;;25.24;100.00;100813.03;10511849;28;20040;-78
2023/07/29 20:38:56;;;;;;;0.10;0.10;;;;;;;25.23;100.00;100809.50;10508603;28;20128;-78
2023/07/29 20:43:58;;;;;;;0.43;0.20;;;;;;;25.61;100.00;100803.75;10525718;28;20108;-79
2023/07/29 20:49:00;;;;;;;0.20;0.10;;;;;;;25.53;100.00;100808.47;10526439;28;20051;-78
2023/07/29 20:54:02;;;;;;;0.00;0.00;;;;;;;25.11;100.00;100813.47;10514941;28;20049;-79
2023/07/29 20:59:04;;;;;;;0.10;0.10;;;;;;;24.83;100.00;100813.59;10515673;28;20048;-79
2023/07/29 21:04:05;;;;;;;0.00;0.00;;;;;;;24.93;100.00;100819.41;10518254;28;20094;-79
2023/07/29 21:09:08;;;;;;;0.10;0.10;;;;;;;24.56;100.00;100818.88;10519946;28;20036;-78
2023/07/29 21:14:10;;;;;;;0.00;0.00;;;;;;;24.44;100.00;100819.28;10516956;28;20040;-78
2023/07/29 21:19:12;;;;;;;0.00;0.00;;;;;;;24.61;100.00;100814.28;10521570;28;20047;-79
2023/07/29 21:24:13;;;;;;;0.75;0.10;;;;;;;24.11;100.00;100809.81;10515755;28;20113;-79
2023/07/29 21:29:16;;;;;;;0.00;0.00;;;;;;;23.41;100.00;100825.06;10513884;28;20045;-78
2023/07/29 21:34:17;;;;;;;0.10;0.08;;;;;;;23.11;100.00;100825.00;10514587;28;20048;-78
2023/07/29 21:39:19;;;;;;;0.03;0.03;;;;;;;23.79;100.00;100826.59;10516065;28;20071;-78
2023/07/29 21:44:21;;;;;;;0.00;0.00;;;;;;;23.34;100.00;100830.53;10517508;28;20119;-79
2023/07/29 21:49:23;;;;;;;0.00;0.00;;;;;;;22.94;100.00;100824.59;10516152;28;20047;-78
2023/07/29 21:54:24;;;;;;;0.00;0.00;;;;;;;22.36;100.00;100835.66;10521178;28;20542;-78
2023/07/29 21:59:26;;;;;;;0.20;0.20;;;;;;;23.37;100.00;100830.44;10507726;28;20056;-79
2023/07/29 22:04:28;;;;;;;0.00;0.00;;;;;;;22.97;100.00;100835.03;10513698;28;20040;-78
2023/07/29 22:09:29;;;;;;;0.22;0.15;;;;;;;22.70;100.00;100842.72;10515836;28;20489;-78
2023/07/29 22:14:32;;;;;;;0.00;0.00;;;;;;;22.72;100.00;100840.91;10515778;28;20080;-78
2023/07/29 22:19:33;;;;;;;0.00;0.00;;;;;;;22.53;100.00;100835.25;10524732;28;20032;-78
2023/07/29 22:24:35;;;;;;;0.00;0.00;;;;;;;22.73;100.00;100840.00;10516229;28;20048;-78
2023/07/29 22:29:37;;;;;;;0.00;0.00;;;;;;;22.61;100.00;100842.94;10515435;28;20032;-78
2023/07/29 22:34:39;;;;;;;0.05;0.00;;;;;;;22.49;100.00;100844.97;10511413;28;20050;-78
2023/07/29 22:39:42;;;;;;;0.10;0.10;;;;;;;22.43;100.00;100845.13;10506488;28;20048;-78
2023/07/29 22:44:44;;;;;;;0.20;0.10;;;;;;;22.47;100.00;100856.41;10530407;28;20048;-78
2023/07/29 22:49:49;;;;;;;0.00;0.00;;;;;;;22.35;100.00;100858.41;10520586;28;20032;-78
2023/07/29 22:54:51;;;;;;;0.00;0.00;;;;;;;22.21;100.00;100864.88;10517624;28;20079;-78